Time;durP1;ratioP1;P1;durP2;ratioP2;P2;SDS_P1;SDS_P2;PMS_P1;PMS_P2;Temp;Humidity;BMP_temperature;BMP_pressure;BME280_temperature;BME280_humidity;BME280_pressure;Samples;Min_cycle;Max_cycle;Signal;HPM_P1;HPM_P2
2023/01/05 00:00:31;;;;;;;;;;;12.60;99.90;;;;;;2026773;29;20439;-71
2023/01/05 00:01:31;;;;;;;;;;;12.60;99.90;;;;;;2026027;29;20021;-72
2023/01/05 00:02:32;;;;;;;;;;;12.60;99.90;;;;;;2026509;29;19915;-72
2023/01/05 00:03:33;;;;;;;;;;;12.60;99.90;;;;;;2025987;29;19949;-72
2023/01/05 00:04:34;;;;;;;;;;;12.60;99.90;;;;;;2025475;29;20311;-71
2023/01/05 00:05:34;;;;;;;;;;;12.60;99.90;;;;;;2023023;29;19919;-71
2023/01/05 00:06:36;;;;;;;;;;;12.60;99.90;;;;;;2025957;29;19908;-72
2023/01/05 00:07:36;;;;;;;;;;;12.70;99.90;;;;;;2025829;29;20331;-72
2023/01/05 00:08:37;;;;;;;;;;;12.60;99.90;;;;;;2025250;29;21216;-71
2023/01/05 00:09:37;;;;;;;;;;;12.60;99.90;;;;;;2024691;29;19919;-71
2023/01/05 00:22:51;;;;;;;;;;;12.60;99.90;;;;;;2025258;29;20654;-71
2023/01/05 00:23:51;;;;;;;;;;;12.60;99.90;;;;;;2024568;29;19911;-71
2023/01/05 00:24:51;;;;;;;;;;;12.60;99.90;;;;;;2025551;29;19970;-71
2023/01/05 00:25:52;;;;;;;;;;;12.60;99.90;;;;;;2023879;29;20318;-71
2023/01/05 00:26:52;;;;;;;;;;;12.60;99.90;;;;;;2024161;29;19975;-71
2023/01/05 00:27:53;;;;;;;;;;;12.60;99.90;;;;;;2025584;29;20283;-71
2023/01/05 00:28:53;;;;;;;;;;;12.60;99.90;;;;;;2025771;29;19918;-71
2023/01/05 00:29:54;;;;;;;;;;;12.60;99.90;;;;;;2024759;29;19915;-71
2023/01/05 00:30:54;;;;;;;;;;;12.60;99.90;;;;;;2025023;29;20704;-71
2023/01/05 00:31:55;;;;;;;;;;;12.60;99.90;;;;;;2026359;29;19912;-71
2023/01/05 00:32:55;;;;;;;;;;;12.60;99.90;;;;;;2026352;29;19950;-72
2023/01/05 00:33:56;;;;;;;;;;;12.60;99.90;;;;;;2024403;29;19911;-71
2023/01/05 00:34:57;;;;;;;;;;;12.60;99.90;;;;;;2026048;29;19915;-71
2023/01/05 00:35:57;;;;;;;;;;;12.60;99.90;;;;;;2025074;29;19946;-71
2023/01/05 00:36:58;;;;;;;;;;;12.60;99.90;;;;;;2023779;29;20374;-71
2023/01/05 00:37:58;;;;;;;;;;;12.60;99.90;;;;;;2026043;29;19911;-71
2023/01/05 00:38:59;;;;;;;;;;;12.60;99.90;;;;;;2025691;29;20356;-71
2023/01/05 00:39:59;;;;;;;;;;;12.60;99.90;;;;;;2024870;29;19922;-71
2023/01/05 00:40:59;;;;;;;;;;;12.60;99.90;;;;;;2025787;29;19922;-71
2023/01/05 00:42:00;;;;;;;;;;;12.60;99.90;;;;;;2025177;29;19918;-71
2023/01/05 00:43:00;;;;;;;;;;;12.60;99.90;;;;;;2025178;29;19966;-71
2023/01/05 00:44:01;;;;;;;;;;;12.60;99.90;;;;;;2024400;29;19918;-71
2023/01/05 00:45:01;;;;;;;;;;;12.60;99.90;;;;;;2024859;29;19919;-71
2023/01/05 00:46:02;;;;;;;;;;;12.60;99.90;;;;;;2021498;29;19911;-71
2023/01/05 00:47:02;;;;;;;;;;;12.60;99.90;;;;;;2026485;29;19907;-71
2023/01/05 00:48:03;;;;;;;;;;;12.60;99.90;;;;;;2024741;29;19907;-71
2023/01/05 00:49:03;;;;;;;;;;;12.60;99.90;;;;;;2025290;29;19994;-71
2023/01/05 00:50:04;;;;;;;;;;;12.60;99.90;;;;;;2025309;29;19911;-71
2023/01/05 00:51:05;;;;;;;;;;;12.60;99.90;;;;;;2025833;29;20442;-71
2023/01/05 00:52:06;;;;;;;;;;;12.50;99.90;;;;;;2025324;29;19998;-71
2023/01/05 00:53:06;;;;;;;;;;;12.60;99.90;;;;;;2026078;29;20346;-71
2023/01/05 00:54:07;;;;;;;;;;;12.50;99.90;;;;;;2026606;29;20713;-71
2023/01/05 00:55:07;;;;;;;;;;;12.50;99.90;;;;;;2026274;29;19921;-71
2023/01/05 00:56:08;;;;;;;;;;;12.50;99.90;;;;;;2027149;29;20006;-71
2023/01/05 00:57:12;;;;;;;;;;;12.50;99.90;;;;;;2027643;29;19963;-71
2023/01/05 00:58:13;;;;;;;;;;;12.50;99.90;;;;;;2025888;29;20022;-71
2023/01/05 00:59:14;;;;;;;;;;;12.50;99.90;;;;;;2025639;29;19944;-71
2023/01/05 01:00:16;;;;;;;;;;;12.50;99.90;;;;;;2027314;29;20437;-71
2023/01/05 01:01:16;;;;;;;;;;;12.50;99.90;;;;;;2027491;29;19919;-71
2023/01/05 01:02:17;;;;;;;;;;;12.50;99.90;;;;;;2027759;29;19915;-71
2023/01/05 01:03:17;;;;;;;;;;;12.50;99.90;;;;;;2027147;29;19915;-71
2023/01/05 01:04:18;;;;;;;;;;;12.50;99.90;;;;;;2028721;29;20350;-71
2023/01/05 01:05:18;;;;;;;;;;;12.50;99.90;;;;;;2025050;29;19922;-71
2023/01/05 01:06:19;;;;;;;;;;;12.50;99.90;;;;;;2025167;29;19918;-71
2023/01/05 01:07:20;;;;;;;;;;;12.50;99.90;;;;;;2026351;29;19994;-71
2023/01/05 01:08:20;;;;;;;;;;;12.50;99.90;;;;;;2031395;29;19907;-71
2023/01/05 01:09:20;;;;;;;;;;;12.40;99.90;;;;;;2033130;29;19922;-71
2023/01/05 01:10:21;;;;;;;;;;;12.40;99.90;;;;;;2026078;29;19911;-71
2023/01/05 01:11:21;;;;;;;;;;;12.40;99.90;;;;;;2025166;29;19907;-71
2023/01/05 01:12:22;;;;;;;;;;;12.40;99.90;;;;;;2032711;29;20013;-71
2023/01/05 01:13:23;;;;;;;;;;;12.40;99.90;;;;;;2032857;29;19910;-71
2023/01/05 01:14:23;;;;;;;;;;;12.40;99.90;;;;;;2024562;29;19915;-71
2023/01/05 01:15:24;;;;;;;;;;;12.40;99.90;;;;;;2025222;29;19908;-71
2023/01/05 01:16:24;;;;;;;;;;;12.40;99.90;;;;;;2024556;29;19954;-71
2023/01/05 01:17:25;;;;;;;;;;;12.40;99.90;;;;;;2025796;29;20651;-71
2023/01/05 01:18:25;;;;;;;;;;;12.40;99.90;;;;;;2027714;29;19919;-71
2023/01/05 01:19:25;;;;;;;;;;;12.30;99.90;;;;;;2028151;29;20382;-71
2023/01/05 01:20:26;;;;;;;;;;;12.30;99.90;;;;;;2025891;29;19965;-71
2023/01/05 01:21:26;;;;;;;;;;;12.30;99.90;;;;;;2026521;29;20430;-71
2023/01/05 01:22:27;;;;;;;;;;;12.30;99.90;;;;;;2026056;29;19994;-71
2023/01/05 01:23:27;;;;;;;;;;;12.30;99.90;;;;;;2025208;29;19926;-71
2023/01/05 01:24:28;;;;;;;;;;;12.30;99.90;;;;;;2026346;29;19915;-71
2023/01/05 01:25:29;;;;;;;;;;;12.30;99.90;;;;;;2025530;29;19915;-71
2023/01/05 01:26:29;;;;;;;;;;;12.30;99.90;;;;;;2025771;29;19915;-71
2023/01/05 01:27:30;;;;;;;;;;;12.30;99.90;;;;;;2026130;29;19912;-71
2023/01/05 01:28:31;;;;;;;;;;;12.30;99.90;;;;;;2025729;29;19911;-71
2023/01/05 01:29:31;;;;;;;;;;;12.30;99.90;;;;;;2026767;29;19911;-71
2023/01/05 01:30:32;;;;;;;;;;;12.30;99.90;;;;;;2024739;29;19959;-71
2023/01/05 01:31:34;;;;;;;;;;;12.30;99.90;;;;;;2025718;29;19916;-71
2023/01/05 01:32:34;;;;;;;;;;;12.30;99.90;;;;;;2025084;29;20022;-71
2023/01/05 01:33:37;;;;;;;;;;;12.30;99.90;;;;;;2026923;29;19912;-71
2023/01/05 01:34:38;;;;;;;;;;;12.30;99.90;;;;;;2026249;29;20537;-71
2023/01/05 01:35:39;;;;;;;;;;;12.30;99.90;;;;;;2023056;29;19951;-71
2023/01/05 01:36:39;;;;;;;;;;;12.30;99.90;;;;;;2025624;29;19990;-71
2023/01/05 01:37:40;;;;;;;;;;;12.30;99.90;;;;;;2025174;29;19925;-71
2023/01/05 01:38:40;;;;;;;;;;;12.30;99.90;;;;;;2025094;29;19923;-71
2023/01/05 01:39:41;;;;;;;;;;;12.30;99.90;;;;;;2023565;29;20557;-71
2023/01/05 01:40:44;;;;;;;;;;;12.30;99.90;;;;;;2024745;29;20263;-71
2023/01/05 01:41:44;;;;;;;;;;;12.30;99.90;;;;;;2025288;29;20358;-71
2023/01/05 01:42:44;;;;;;;;;;;12.30;99.90;;;;;;2027509;29;20291;-71
2023/01/05 01:43:49;;;;;;;;;;;12.30;99.90;;;;;;2026723;29;19907;-71
2023/01/05 01:44:55;;;;;;;;;;;12.30;99.90;;;;;;2025921;29;19927;-71
2023/01/05 01:45:55;;;;;;;;;;;12.30;99.90;;;;;;2025166;29;19950;-71
2023/01/05 01:46:55;;;;;;;;;;;12.30;99.90;;;;;;2026105;29;20654;-71
2023/01/05 01:47:57;;;;;;;;;;;12.30;99.90;;;;;;2027128;29;19918;-71
2023/01/05 01:48:59;;;;;;;;;;;12.30;99.90;;;;;;2024925;29;19950;-72
2023/01/05 01:50:02;;;;;;;;;;;12.30;99.90;;;;;;2024803;29;19914;-72
2023/01/05 01:51:05;;;;;;;;;;;12.30;99.90;;;;;;2025312;29;19919;-72
2023/01/05 01:52:06;;;;;;;;;;;12.30;99.90;;;;;;2024381;29;19911;-71
2023/01/05 01:53:18;;;;;;;;;;;12.30;99.90;;;;;;2026624;29;19911;-72
2023/01/05 01:54:19;;;;;;;;;;;12.30;99.90;;;;;;2024809;29;19922;-71
2023/01/05 01:55:19;;;;;;;;;;;12.30;99.90;;;;;;2023818;29;19911;-71
2023/01/05 01:56:21;;;;;;;;;;;12.30;99.90;;;;;;2025332;29;20271;-71
2023/01/05 01:57:21;;;;;;;;;;;12.30;99.90;;;;;;2025369;29;19923;-71
2023/01/05 01:58:24;;;;;;;;;;;12.30;99.90;;;;;;2026439;29;19916;-71
2023/01/05 01:59:25;;;;;;;;;;;12.30;99.90;;;;;;2025876;29;19917;-71
2023/01/05 02:00:26;;;;;;;;;;;12.30;99.90;;;;;;2023276;29;19922;-71
2023/01/05 02:01:26;;;;;;;;;;;12.30;99.90;;;;;;2025366;29;19946;-71
2023/01/05 02:02:27;;;;;;;;;;;12.30;99.90;;;;;;2026559;29;20113;-71
2023/01/05 02:03:28;;;;;;;;;;;12.30;99.90;;;;;;2025256;29;20456;-71
2023/01/05 02:04:30;;;;;;;;;;;12.30;99.90;;;;;;2026284;29;20350;-72
2023/01/05 02:05:31;;;;;;;;;;;12.30;99.90;;;;;;2025650;29;19911;-72
2023/01/05 02:06:32;;;;;;;;;;;12.30;99.90;;;;;;2025792;29;19988;-72
2023/01/05 02:07:33;;;;;;;;;;;12.30;99.90;;;;;;2023895;29;20434;-72
2023/01/05 02:08:34;;;;;;;;;;;12.30;99.90;;;;;;2025050;29;19942;-71
2023/01/05 02:09:34;;;;;;;;;;;12.30;99.90;;;;;;2023590;29;19920;-71
2023/01/05 02:10:35;;;;;;;;;;;12.30;99.90;;;;;;2024376;29;19959;-71
2023/01/05 02:11:50;;;;;;;;;;;12.30;99.90;;;;;;2024837;29;19911;-72
2023/01/05 02:12:50;;;;;;;;;;;12.30;99.90;;;;;;2026256;29;20022;-71
2023/01/05 02:13:57;;;;;;;;;;;12.30;99.90;;;;;;2027377;29;20387;-72
2023/01/05 02:15:00;;;;;;;;;;;12.30;99.90;;;;;;2026288;29;19911;-72
2023/01/05 02:16:04;;;;;;;;;;;12.30;99.90;;;;;;2024788;29;19911;-72
2023/01/05 02:17:04;;;;;;;;;;;12.30;99.90;;;;;;2027080;29;19925;-71
2023/01/05 02:18:07;;;;;;;;;;;12.30;99.90;;;;;;2026083;29;19927;-71
2023/01/05 02:19:24;;;;;;;;;;;12.30;99.90;;;;;;2025968;29;20029;-71
2023/01/05 02:20:57;;;;;;;;;;;12.30;99.90;;;;;;2026170;29;20038;-71
2023/01/05 02:22:13;;;;;;;;;;;12.30;99.90;;;;;;2013378;29;20383;-72
2023/01/05 02:23:29;;;;;;;;;;;12.30;99.90;;;;;;2025198;29;19911;-72
2023/01/05 02:24:43;;;;;;;;;;;12.30;99.90;;;;;;2033574;29;20072;-71
2023/01/05 02:26:11;;;;;;;;;;;12.30;99.90;;;;;;2031189;29;19922;-71
2023/01/05 02:27:30;;;;;;;;;;;12.30;99.90;;;;;;2024065;29;19939;-72
2023/01/05 02:28:41;;;;;;;;;;;12.30;99.90;;;;;;2025082;29;19919;-72
2023/01/05 02:30:02;;;;;;;;;;;12.30;99.90;;;;;;2024054;29;19967;-72
2023/01/05 02:31:05;;;;;;;;;;;12.20;99.90;;;;;;2000316;29;19952;-71
2023/01/05 02:32:06;;;;;;;;;;;12.20;99.90;;;;;;2019455;29;19912;-72
2023/01/05 02:33:25;;;;;;;;;;;12.20;99.90;;;;;;2025539;29;19943;-72
2023/01/05 02:34:44;;;;;;;;;;;12.30;99.90;;;;;;2026007;29;19911;-72
2023/01/05 02:35:51;;;;;;;;;;;12.20;99.90;;;;;;2030540;29;19915;-72
2023/01/05 02:36:58;;;;;;;;;;;12.20;99.90;;;;;;2030688;29;20932;-72
2023/01/05 02:38:20;;;;;;;;;;;12.20;99.90;;;;;;2025152;29;19915;-72
2023/01/05 02:39:25;;;;;;;;;;;12.20;99.90;;;;;;2024556;29;19907;-71
2023/01/05 02:40:28;;;;;;;;;;;12.20;99.90;;;;;;2025181;29;20018;-71
2023/01/05 02:41:34;;;;;;;;;;;12.20;99.90;;;;;;2024477;29;19988;-71
2023/01/05 02:42:36;;;;;;;;;;;12.20;99.90;;;;;;2025203;29;19915;-72
2023/01/05 02:43:37;;;;;;;;;;;12.20;99.90;;;;;;2024273;29;20419;-72
2023/01/05 02:44:37;;;;;;;;;;;12.20;99.90;;;;;;2026331;29;20315;-71
2023/01/05 02:45:38;;;;;;;;;;;12.20;99.90;;;;;;2021823;29;19970;-72
2023/01/05 02:46:38;;;;;;;;;;;12.20;99.90;;;;;;2028380;29;20002;-72
2023/01/05 02:47:40;;;;;;;;;;;12.20;99.90;;;;;;2026565;29;19920;-72
2023/01/05 02:48:41;;;;;;;;;;;12.20;99.90;;;;;;2026445;29;19912;-72
2023/01/05 02:49:41;;;;;;;;;;;12.20;99.90;;;;;;2023097;29;19915;-72
2023/01/05 02:50:46;;;;;;;;;;;12.20;99.90;;;;;;2026308;29;19915;-72
2023/01/05 02:51:50;;;;;;;;;;;12.20;99.90;;;;;;2023967;29;19915;-72
2023/01/05 02:53:08;;;;;;;;;;;12.20;99.90;;;;;;2025733;29;20282;-72
2023/01/05 02:54:16;;;;;;;;;;;12.20;99.90;;;;;;2026404;29;19981;-71
2023/01/05 02:55:20;;;;;;;;;;;12.20;99.90;;;;;;2026949;29;19918;-71
2023/01/05 02:56:23;;;;;;;;;;;12.20;99.90;;;;;;2026758;29;19956;-71
2023/01/05 02:57:49;;;;;;;;;;;12.20;99.90;;;;;;2025232;29;19911;-72
2023/01/05 02:58:54;;;;;;;;;;;12.20;99.90;;;;;;2026636;29;20562;-71
2023/01/05 02:59:54;;;;;;;;;;;12.20;99.90;;;;;;2025229;29;19923;-71
2023/01/05 03:01:06;;;;;;;;;;;12.20;99.90;;;;;;2025314;29;19947;-71
2023/01/05 03:02:11;;;;;;;;;;;12.20;99.90;;;;;;2024690;29;19919;-72
2023/01/05 03:03:18;;;;;;;;;;;12.20;99.90;;;;;;2023993;29;19958;-72
2023/01/05 03:04:24;;;;;;;;;;;12.20;99.90;;;;;;2025434;29;19926;-72
2023/01/05 03:05:26;;;;;;;;;;;12.20;99.90;;;;;;2024832;29;19915;-72
2023/01/05 03:06:29;;;;;;;;;;;12.20;99.90;;;;;;2025441;29;19994;-71
2023/01/05 03:07:32;;;;;;;;;;;12.10;99.90;;;;;;2023900;29;19911;-71
2023/01/05 03:08:35;;;;;;;;;;;12.10;99.90;;;;;;2024904;29;20375;-71
2023/01/05 03:09:37;;;;;;;;;;;12.10;99.90;;;;;;2024506;29;20473;-72
2023/01/05 03:13:53;;;;;;;;;;;12.10;99.90;;;;;;2025165;29;20576;-72
2023/01/05 03:14:58;;;;;;;;;;;12.10;99.90;;;;;;2025856;29;20002;-71
2023/01/05 03:16:01;;;;;;;;;;;12.10;99.90;;;;;;2024045;29;19915;-72
2023/01/05 03:17:04;;;;;;;;;;;12.10;99.90;;;;;;2024312;29;19916;-72
2023/01/05 03:18:07;;;;;;;;;;;12.10;99.90;;;;;;2027253;29;19939;-72
2023/01/05 03:20:31;;;;;;;;;;;12.10;99.90;;;;;;2026273;29;19916;-72
2023/01/05 03:35:37;;;;;;;;;;;12.10;99.90;;;;;;2025764;29;19908;-71
2023/01/05 03:36:44;;;;;;;;;;;12.00;99.90;;;;;;2026011;29;19958;-71
2023/01/05 03:37:45;;;;;;;;;;;12.10;99.90;;;;;;2024770;29;19907;-72
2023/01/05 03:38:46;;;;;;;;;;;12.00;99.90;;;;;;2023168;29;19970;-72
2023/01/05 03:39:47;;;;;;;;;;;12.00;99.90;;;;;;2025831;29;19912;-71
2023/01/05 03:40:50;;;;;;;;;;;12.00;99.90;;;;;;2023528;29;19925;-71
2023/01/05 03:41:51;;;;;;;;;;;12.00;99.90;;;;;;2024146;29;19915;-71
2023/01/05 03:42:52;;;;;;;;;;;12.00;99.90;;;;;;2024756;29;19911;-71
2023/01/05 03:43:53;;;;;;;;;;;12.00;99.90;;;;;;2022633;29;19915;-71
2023/01/05 03:44:53;;;;;;;;;;;12.00;99.90;;;;;;2025503;29;19986;-71
2023/01/05 03:45:55;;;;;;;;;;;12.00;99.90;;;;;;2026276;29;19912;-71
2023/01/05 03:46:55;;;;;;;;;;;11.90;99.90;;;;;;2026060;29;19915;-71
2023/01/05 03:47:56;;;;;;;;;;;11.90;99.90;;;;;;2026046;29;19911;-71
2023/01/05 03:48:56;;;;;;;;;;;11.90;99.90;;;;;;2024227;29;19915;-71
2023/01/05 03:49:57;;;;;;;;;;;11.90;99.90;;;;;;2024102;29;20033;-71
2023/01/05 03:50:57;;;;;;;;;;;11.90;99.90;;;;;;2024544;29;19998;-71
2023/01/05 03:51:58;;;;;;;;;;;11.90;99.90;;;;;;2024258;29;21529;-71
2023/01/05 03:52:58;;;;;;;;;;;11.90;99.90;;;;;;2025259;29;19912;-71
2023/01/05 03:53:59;;;;;;;;;;;11.90;99.90;;;;;;2024752;29;20267;-71
2023/01/05 03:54:59;;;;;;;;;;;11.90;99.90;;;;;;2022047;29;19963;-71
2023/01/05 03:55:59;;;;;;;;;;;11.90;99.90;;;;;;2023943;29;20263;-72
2023/01/05 03:57:00;;;;;;;;;;;11.90;99.90;;;;;;2024024;29;19988;-71
2023/01/05 03:58:00;;;;;;;;;;;11.90;99.90;;;;;;2024687;29;20278;-71
2023/01/05 03:59:01;;;;;;;;;;;11.90;99.90;;;;;;2025686;29;19971;-71
2023/01/05 04:00:03;;;;;;;;;;;11.90;99.90;;;;;;2022370;29;19961;-71
2023/01/05 04:01:05;;;;;;;;;;;11.90;99.90;;;;;;2026590;29;19915;-72
2023/01/05 04:02:05;;;;;;;;;;;11.90;99.90;;;;;;2023699;29;20685;-72
2023/01/05 04:03:07;;;;;;;;;;;11.90;99.90;;;;;;2023322;29;19922;-72
2023/01/05 04:04:08;;;;;;;;;;;11.90;99.90;;;;;;2027719;29;19911;-71
2023/01/05 04:05:08;;;;;;;;;;;11.90;99.90;;;;;;2026605;29;19950;-71
2023/01/05 04:06:09;;;;;;;;;;;11.90;99.90;;;;;;2025525;29;19911;-71
2023/01/05 04:07:09;;;;;;;;;;;11.90;99.90;;;;;;2023827;29;19927;-71
2023/01/05 04:08:10;;;;;;;;;;;11.90;99.90;;;;;;2024864;29;20282;-71
2023/01/05 04:09:10;;;;;;;;;;;11.80;99.90;;;;;;2026578;29;19939;-72
2023/01/05 04:10:11;;;;;;;;;;;11.80;99.90;;;;;;2023515;29;19911;-71
2023/01/05 04:11:13;;;;;;;;;;;11.80;99.90;;;;;;2024586;29;19911;-71
2023/01/05 04:12:13;;;;;;;;;;;11.80;99.90;;;;;;2024968;29;19929;-71
2023/01/05 04:13:13;;;;;;;;;;;11.80;99.90;;;;;;2024458;29;19915;-71
2023/01/05 04:14:14;;;;;;;;;;;11.80;99.90;;;;;;2024652;29;19918;-71
2023/01/05 04:15:14;;;;;;;;;;;11.80;99.90;;;;;;2024197;29;19959;-71
2023/01/05 04:16:15;;;;;;;;;;;11.80;99.90;;;;;;2025379;29;19916;-71
2023/01/05 04:17:16;;;;;;;;;;;11.80;99.90;;;;;;2025299;29;19965;-71
2023/01/05 04:18:16;;;;;;;;;;;11.70;99.90;;;;;;2022836;29;21569;-71
2023/01/05 04:19:17;;;;;;;;;;;11.80;99.90;;;;;;2024857;29;19951;-71
2023/01/05 04:20:17;;;;;;;;;;;11.80;99.90;;;;;;2025491;29;19974;-71
2023/01/05 04:21:18;;;;;;;;;;;11.70;99.90;;;;;;2025231;29;19919;-71
2023/01/05 04:22:18;;;;;;;;;;;11.80;99.90;;;;;;2025646;29;19907;-71
2023/01/05 04:23:19;;;;;;;;;;;11.70;99.90;;;;;;2023738;29;20616;-71
2023/01/05 04:24:19;;;;;;;;;;;11.70;99.90;;;;;;2027557;29;19911;-71
2023/01/05 04:25:19;;;;;;;;;;;11.70;99.90;;;;;;2026401;29;19929;-71
2023/01/05 04:26:20;;;;;;;;;;;11.70;99.90;;;;;;2026121;29;19935;-71
2023/01/05 04:27:20;;;;;;;;;;;11.70;99.90;;;;;;2026047;29;20283;-71
2023/01/05 04:28:21;;;;;;;;;;;11.70;99.90;;;;;;2027578;29;19907;-71
2023/01/05 04:29:21;;;;;;;;;;;11.70;99.90;;;;;;2026305;29;19915;-71
2023/01/05 04:30:22;;;;;;;;;;;11.70;99.90;;;;;;2028151;29;19943;-71
2023/01/05 04:31:22;;;;;;;;;;;11.70;99.90;;;;;;2025512;29;19908;-71
2023/01/05 04:32:23;;;;;;;;;;;11.70;99.90;;;;;;2025667;29;20426;-71
2023/01/05 04:33:24;;;;;;;;;;;11.70;99.90;;;;;;2026708;29;19914;-71
2023/01/05 04:34:24;;;;;;;;;;;11.70;99.90;;;;;;2027550;29;20375;-71
2023/01/05 04:35:25;;;;;;;;;;;11.70;99.90;;;;;;2026370;29;19908;-71
2023/01/05 04:36:25;;;;;;;;;;;11.70;99.90;;;;;;2026879;29;20717;-71
2023/01/05 04:37:25;;;;;;;;;;;11.70;99.90;;;;;;2023669;29;19912;-71
2023/01/05 04:38:26;;;;;;;;;;;11.70;99.90;;;;;;2026611;29;20364;-71
2023/01/05 04:39:26;;;;;;;;;;;11.70;99.90;;;;;;2024491;29;19926;-71
2023/01/05 04:40:27;;;;;;;;;;;11.70;99.90;;;;;;2027535;29;19907;-71
2023/01/05 04:41:27;;;;;;;;;;;11.70;99.90;;;;;;2026129;29;19938;-72
2023/01/05 04:42:28;;;;;;;;;;;11.70;99.90;;;;;;2025503;29;20019;-72
2023/01/05 04:43:28;;;;;;;;;;;11.70;99.90;;;;;;2025410;29;20367;-72
2023/01/05 04:44:28;;;;;;;;;;;11.70;99.90;;;;;;2025272;29;19916;-71
2023/01/05 04:45:29;;;;;;;;;;;11.60;99.90;;;;;;2025837;29;20264;-71
2023/01/05 04:46:30;;;;;;;;;;;11.70;99.90;;;;;;2024549;29;19923;-71
2023/01/05 04:47:31;;;;;;;;;;;11.70;99.90;;;;;;2025595;29;19926;-71
2023/01/05 04:48:31;;;;;;;;;;;11.70;99.90;;;;;;2025689;29;20043;-71
2023/01/05 04:49:32;;;;;;;;;;;11.70;99.90;;;;;;2027113;29;19930;-71
2023/01/05 04:50:32;;;;;;;;;;;11.70;99.90;;;;;;2026253;29;20466;-71
2023/01/05 04:51:33;;;;;;;;;;;11.70;99.90;;;;;;2026278;29;19918;-71
2023/01/05 04:52:33;;;;;;;;;;;11.70;99.90;;;;;;2028584;29;19919;-71
2023/01/05 04:53:33;;;;;;;;;;;11.60;99.90;;;;;;2027227;29;19939;-71
2023/01/05 04:54:34;;;;;;;;;;;11.60;99.90;;;;;;2025572;29;19987;-71
2023/01/05 04:55:34;;;;;;;;;;;11.60;99.90;;;;;;2024778;29;19967;-71
2023/01/05 04:56:35;;;;;;;;;;;11.70;99.90;;;;;;2023630;29;19950;-71
2023/01/05 04:57:36;;;;;;;;;;;11.60;99.90;;;;;;2027545;29;20352;-71
2023/01/05 04:58:36;;;;;;;;;;;11.60;99.90;;;;;;2026681;29;19912;-71
2023/01/05 04:59:36;;;;;;;;;;;11.60;99.90;;;;;;2026160;29;19915;-71
2023/01/05 05:00:37;;;;;;;;;;;11.60;99.90;;;;;;2027936;29;20355;-72
2023/01/05 05:01:38;;;;;;;;;;;11.60;99.90;;;;;;2025920;29;19923;-72
2023/01/05 05:02:38;;;;;;;;;;;11.60;99.90;;;;;;2026567;29;19918;-71
2023/01/05 05:03:39;;;;;;;;;;;11.60;99.90;;;;;;2026894;29;20367;-72
2023/01/05 05:04:39;;;;;;;;;;;11.60;99.90;;;;;;2025885;29;19919;-72
2023/01/05 05:05:40;;;;;;;;;;;11.60;99.90;;;;;;2026602;29;19951;-71
2023/01/05 05:06:40;;;;;;;;;;;11.60;99.90;;;;;;2023702;29;19962;-71
2023/01/05 05:07:41;;;;;;;;;;;11.60;99.90;;;;;;2026245;29;20071;-71
2023/01/05 05:08:41;;;;;;;;;;;11.60;99.90;;;;;;2025933;29;19946;-71
2023/01/05 05:09:42;;;;;;;;;;;11.60;99.90;;;;;;2024974;29;19911;-71
2023/01/05 05:10:42;;;;;;;;;;;11.60;99.90;;;;;;2025401;29;20311;-71
2023/01/05 05:11:42;;;;;;;;;;;11.60;99.90;;;;;;2026561;29;19915;-72
2023/01/05 05:12:43;;;;;;;;;;;11.60;99.90;;;;;;2026006;29;20414;-71
2023/01/05 05:13:43;;;;;;;;;;;11.60;99.90;;;;;;2025943;29;19911;-71
2023/01/05 05:14:44;;;;;;;;;;;11.60;99.90;;;;;;2025325;29;19912;-72
2023/01/05 05:15:44;;;;;;;;;;;11.60;99.90;;;;;;2025683;29;20010;-72
2023/01/05 05:16:45;;;;;;;;;;;11.60;99.90;;;;;;2024364;29;19926;-72
2023/01/05 05:17:45;;;;;;;;;;;11.60;99.90;;;;;;2025246;29;20360;-72
2023/01/05 05:18:46;;;;;;;;;;;11.60;99.90;;;;;;2023458;29;19921;-71
2023/01/05 05:19:46;;;;;;;;;;;11.60;99.90;;;;;;2024532;29;19926;-71
2023/01/05 05:20:49;;;;;;;;;;;11.60;99.90;;;;;;2024867;29;20410;-71
2023/01/05 05:21:49;;;;;;;;;;;11.60;99.90;;;;;;2025699;29;19919;-71
2023/01/05 05:22:50;;;;;;;;;;;11.60;99.90;;;;;;2024479;29;20539;-72
2023/01/05 05:23:50;;;;;;;;;;;11.60;99.90;;;;;;2033863;29;19915;-71
2023/01/05 05:24:51;;;;;;;;;;;11.60;99.90;;;;;;2033566;29;20509;-71
2023/01/05 05:25:51;;;;;;;;;;;11.60;99.90;;;;;;2025859;29;19919;-71
2023/01/05 05:26:52;;;;;;;;;;;11.60;99.90;;;;;;2023966;29;21284;-71
2023/01/05 05:27:52;;;;;;;;;;;11.60;99.90;;;;;;2032856;29;19919;-72
2023/01/05 05:28:52;;;;;;;;;;;11.60;99.90;;;;;;2026461;29;20055;-72
2023/01/05 05:29:53;;;;;;;;;;;11.60;99.90;;;;;;2025206;29;20034;-72
2023/01/05 05:30:55;;;;;;;;;;;11.60;99.90;;;;;;2028028;29;19949;-72
2023/01/05 05:31:55;;;;;;;;;;;11.60;99.90;;;;;;2025331;29;19920;-72
2023/01/05 05:32:55;;;;;;;;;;;11.60;99.90;;;;;;2027133;29;20030;-72
2023/01/05 05:33:56;;;;;;;;;;;11.60;99.90;;;;;;2025431;29;19922;-72
2023/01/05 05:34:56;;;;;;;;;;;11.60;99.90;;;;;;2025648;29;20513;-72
2023/01/05 05:35:57;;;;;;;;;;;11.60;99.90;;;;;;2024179;29;19915;-72
2023/01/05 05:36:57;;;;;;;;;;;11.60;99.90;;;;;;2022580;29;20391;-72
2023/01/05 05:37:58;;;;;;;;;;;11.60;99.90;;;;;;2024680;29;20060;-72
2023/01/05 05:38:58;;;;;;;;;;;11.60;99.90;;;;;;2025896;29;20299;-72
2023/01/05 05:39:59;;;;;;;;;;;11.60;99.90;;;;;;2022855;29;19942;-72
2023/01/05 05:40:59;;;;;;;;;;;11.60;99.90;;;;;;2025324;29;19919;-72
2023/01/05 05:41:59;;;;;;;;;;;11.60;99.90;;;;;;2025000;29;19915;-72
2023/01/05 05:43:00;;;;;;;;;;;11.60;99.90;;;;;;2025417;29;19962;-72
2023/01/05 05:44:01;;;;;;;;;;;11.60;99.90;;;;;;2025146;29;20363;-72
2023/01/05 05:45:02;;;;;;;;;;;11.60;99.90;;;;;;2025499;29;20801;-72
2023/01/05 05:46:02;;;;;;;;;;;11.60;99.90;;;;;;2024615;29;20383;-72
2023/01/05 05:47:03;;;;;;;;;;;11.50;99.90;;;;;;2026075;29;19907;-72
2023/01/05 05:48:04;;;;;;;;;;;11.50;99.90;;;;;;2025446;29;19912;-72
2023/01/05 05:49:07;;;;;;;;;;;11.60;99.90;;;;;;2025771;29;19911;-72
2023/01/05 05:50:08;;;;;;;;;;;11.50;99.90;;;;;;2023931;29;20422;-72
2023/01/05 05:51:08;;;;;;;;;;;11.50;99.90;;;;;;2026254;29;20414;-72
2023/01/05 05:52:08;;;;;;;;;;;11.50;99.90;;;;;;2024051;29;19960;-72
2023/01/05 05:53:09;;;;;;;;;;;11.50;99.90;;;;;;2025312;29;20078;-72
2023/01/05 05:54:09;;;;;;;;;;;11.50;99.90;;;;;;2024469;29;19915;-72
2023/01/05 05:55:10;;;;;;;;;;;11.50;99.90;;;;;;2024599;29;19915;-72
2023/01/05 05:56:10;;;;;;;;;;;11.50;99.90;;;;;;2026279;29;19994;-72
2023/01/05 05:57:11;;;;;;;;;;;11.50;99.90;;;;;;2025616;29;20002;-72
2023/01/05 05:58:11;;;;;;;;;;;11.50;99.90;;;;;;2023814;29;19971;-72
2023/01/05 05:59:12;;;;;;;;;;;11.50;99.90;;;;;;2023778;29;19915;-72
2023/01/05 06:00:13;;;;;;;;;;;11.50;99.90;;;;;;2025406;29;19916;-72
2023/01/05 06:01:13;;;;;;;;;;;11.50;99.90;;;;;;2027078;29;20022;-72
2023/01/05 06:02:15;;;;;;;;;;;11.50;99.90;;;;;;2026007;29;19919;-72
2023/01/05 06:03:15;;;;;;;;;;;11.50;99.90;;;;;;2024954;29;20026;-72
2023/01/05 06:04:17;;;;;;;;;;;11.50;99.90;;;;;;2025274;29;19907;-72
2023/01/05 06:05:17;;;;;;;;;;;11.40;99.90;;;;;;2031787;29;19975;-72
2023/01/05 06:06:18;;;;;;;;;;;11.50;99.90;;;;;;2033094;29;19915;-72
2023/01/05 06:07:18;;;;;;;;;;;11.50;99.90;;;;;;2025542;29;19926;-72
2023/01/05 06:08:19;;;;;;;;;;;11.50;99.90;;;;;;2024175;29;19916;-72
2023/01/05 06:09:19;;;;;;;;;;;11.40;99.90;;;;;;2024315;29;19918;-72
2023/01/05 06:10:19;;;;;;;;;;;11.50;99.90;;;;;;2025456;29;20005;-72
2023/01/05 06:11:20;;;;;;;;;;;11.50;99.90;;;;;;2025243;29;19915;-72
2023/01/05 06:12:20;;;;;;;;;;;11.40;99.90;;;;;;2025444;29;19918;-72
2023/01/05 06:13:21;;;;;;;;;;;11.50;99.90;;;;;;2026073;29;19951;-72
2023/01/05 06:14:22;;;;;;;;;;;11.50;99.90;;;;;;2024830;29;19974;-72
2023/01/05 06:15:22;;;;;;;;;;;11.40;99.90;;;;;;2019637;29;19959;-72
2023/01/05 06:16:23;;;;;;;;;;;11.40;99.90;;;;;;2024768;29;20043;-72
2023/01/05 06:17:23;;;;;;;;;;;11.40;99.90;;;;;;2020735;29;19954;-72
2023/01/05 06:18:24;;;;;;;;;;;11.40;99.90;;;;;;2024450;29;20435;-72
2023/01/05 06:19:24;;;;;;;;;;;11.40;99.90;;;;;;2023415;29;19912;-72
2023/01/05 06:20:25;;;;;;;;;;;11.40;99.90;;;;;;2024941;29;19912;-72
2023/01/05 06:21:25;;;;;;;;;;;11.40;99.90;;;;;;2024777;29;19912;-72
2023/01/05 06:22:26;;;;;;;;;;;11.40;99.90;;;;;;2024489;29;19926;-72
2023/01/05 06:23:26;;;;;;;;;;;11.40;99.90;;;;;;2024639;29;19908;-72
2023/01/05 06:24:27;;;;;;;;;;;11.40;99.90;;;;;;2025347;29;19963;-72
2023/01/05 06:25:27;;;;;;;;;;;11.40;99.90;;;;;;2024899;29;19915;-72
2023/01/05 06:26:28;;;;;;;;;;;11.40;99.90;;;;;;2025876;29;19919;-72
2023/01/05 06:27:28;;;;;;;;;;;11.40;99.90;;;;;;2023177;29;19920;-72
2023/01/05 06:28:29;;;;;;;;;;;11.40;99.90;;;;;;2027093;29;19915;-72
2023/01/05 06:29:29;;;;;;;;;;;11.40;99.90;;;;;;2026255;29;19907;-72
2023/01/05 06:30:29;;;;;;;;;;;11.30;99.90;;;;;;2024788;29;20248;-72